createdAt,value
2023-08-25T00:00:21.241Z,6.53
2023-08-25T00:02:48.233Z,6.70
2023-08-25T00:05:15.195Z,5.72
2023-08-25T00:07:42.038Z,5.95
2023-08-25T00:10:09.328Z,5.30
2023-08-25T00:12:36.172Z,7.78
2023-08-25T00:15:03.518Z,5.55
2023-08-25T00:17:30.459Z,4.95
2023-08-25T00:19:57.341Z,5.13
2023-08-25T00:22:24.239Z,5.22
2023-08-25T00:24:53.941Z,4.15
2023-08-25T00:27:20.859Z,4.78
2023-08-25T00:29:49.264Z,5.03
2023-08-25T00:32:16.137Z,5.75
2023-08-25T00:34:42.970Z,5.10
2023-08-25T00:37:09.876Z,4.15
2023-08-25T00:39:36.716Z,7.90
2023-08-25T00:42:03.622Z,4.03
2023-08-25T00:44:30.450Z,5.10
2023-08-25T00:46:57.845Z,4.85
2023-08-25T00:49:26.634Z,6.47
2023-08-25T00:51:54.585Z,4.47
2023-08-25T00:54:24.047Z,4.60
2023-08-25T00:56:51.507Z,3.58
2023-08-25T00:59:18.900Z,4.18
2023-08-25T01:01:46.816Z,5.43
2023-08-25T01:04:14.293Z,4.30
2023-08-25T01:06:41.175Z,4.55
2023-08-25T01:09:09.035Z,4.15
2023-08-25T01:11:52.858Z,4.93
2023-08-25T01:14:42.841Z,5.70
2023-08-25T01:17:23.543Z,5.38
2023-08-25T01:20:02.168Z,5.60
2023-08-25T01:22:36.274Z,4.68
2023-08-25T01:25:21.937Z,6.80
2023-08-25T01:27:51.622Z,5.40
2023-08-25T01:30:19.144Z,5.20
2023-08-25T01:32:47.118Z,5.22
2023-08-25T01:35:16.195Z,4.47
2023-08-25T01:38:00.631Z,5.32
2023-08-25T01:41:11.265Z,4.53
2023-08-25T01:43:48.767Z,4.72
2023-08-25T01:46:18.247Z,5.22
2023-08-25T01:48:48.377Z,6.57
2023-08-25T01:51:16.352Z,5.55
2023-08-25T01:53:48.796Z,4.93
2023-08-25T01:56:15.790Z,5.68
2023-08-25T01:58:43.474Z,5.07
2023-08-25T02:01:10.398Z,5.25
2023-08-25T02:03:37.269Z,6.10
2023-08-25T02:06:04.320Z,4.78
2023-08-25T02:08:31.326Z,5.55
2023-08-25T02:10:58.221Z,5.40
2023-08-25T02:13:25.236Z,4.65
2023-08-25T02:15:53.498Z,6.32
2023-08-25T02:18:20.567Z,6.28
2023-08-25T02:20:47.467Z,4.82
2023-08-25T02:23:14.370Z,4.70
2023-08-25T02:25:42.518Z,5.60
2023-08-25T02:28:09.983Z,8.02
2023-08-25T02:30:36.936Z,4.00
2023-08-25T02:33:04.006Z,5.75
2023-08-25T02:35:31.094Z,5.88
2023-08-25T02:38:06.611Z,6.63
2023-08-25T02:40:34.642Z,4.57
2023-08-25T02:43:05.903Z,4.15
2023-08-25T02:45:33.843Z,3.78
2023-08-25T02:48:00.881Z,3.72
2023-08-25T02:50:28.338Z,3.65
2023-08-25T02:52:55.351Z,3.85
2023-08-25T02:55:23.148Z,3.55
2023-08-25T02:57:51.534Z,3.05
2023-08-25T03:00:26.434Z,4.72
2023-08-25T03:02:55.474Z,3.50
2023-08-25T03:05:23.833Z,4.78
2023-08-25T03:07:54.540Z,3.28
2023-08-25T03:10:22.963Z,3.42
2023-08-25T03:12:50.572Z,4.05
2023-08-25T03:15:17.625Z,3.42
2023-08-25T03:17:44.739Z,3.80
2023-08-25T03:20:11.856Z,5.47
2023-08-25T03:22:38.785Z,4.65
2023-08-25T03:25:06.183Z,4.05
2023-08-25T03:27:35.893Z,6.13
2023-08-25T03:30:03.578Z,4.18
2023-08-25T03:32:31.547Z,4.78
2023-08-25T03:34:58.437Z,8.07
2023-08-25T03:37:25.796Z,6.28
2023-08-25T03:39:53.490Z,4.35
2023-08-25T03:42:20.902Z,7.43
2023-08-25T03:44:49.318Z,4.13
2023-08-25T03:47:16.315Z,3.45
2023-08-25T03:49:43.208Z,4.78
2023-08-25T03:52:10.376Z,3.65
2023-08-25T03:54:38.079Z,2.72
2023-08-25T03:57:07.900Z,3.17
2023-08-25T03:59:35.103Z,3.40
2023-08-25T04:02:05.084Z,4.07
2023-08-25T04:04:33.597Z,2.63
2023-08-25T04:07:00.890Z,2.65
2023-08-25T04:09:28.342Z,2.55
2023-08-25T04:11:58.421Z,4.05
2023-08-25T04:14:25.419Z,3.92
2023-08-25T04:16:52.416Z,2.13
2023-08-25T04:19:22.583Z,2.33
2023-08-25T04:21:50.481Z,2.47
2023-08-25T04:24:18.474Z,2.15
2023-08-25T04:26:46.000Z,6.82
2023-08-25T04:29:13.004Z,2.75
2023-08-25T04:31:40.768Z,3.75
2023-08-25T04:34:07.857Z,4.03
2023-08-25T04:36:37.563Z,3.15
2023-08-25T04:39:05.030Z,4.20
2023-08-25T04:41:32.468Z,4.82
2023-08-25T04:43:59.463Z,9.20
2023-08-25T04:46:29.511Z,4.80
2023-08-25T04:48:57.779Z,3.58
2023-08-25T04:51:25.057Z,3.88
2023-08-25T04:53:51.913Z,4.15
2023-08-25T04:56:19.572Z,5.05
2023-08-25T04:58:46.507Z,5.35
2023-08-25T05:01:15.477Z,4.35
2023-08-25T05:03:43.861Z,8.70
2023-08-25T05:06:12.452Z,6.13
2023-08-25T05:08:39.363Z,6.65
2023-08-25T05:11:06.819Z,8.32
2023-08-25T05:13:33.800Z,7.20
2023-08-25T05:16:01.269Z,7.82
2023-08-25T05:18:45.176Z,7.47
2023-08-25T05:21:13.165Z,9.00
2023-08-25T05:23:43.928Z,11.43
2023-08-25T05:26:10.828Z,17.17
2023-08-25T05:28:37.746Z,10.13
2023-08-25T05:31:04.715Z,12.15
2023-08-25T05:33:54.030Z,10.15
2023-08-25T05:36:33.275Z,12.50
2023-08-25T05:39:00.222Z,11.70
2023-08-25T05:41:27.235Z,13.85
2023-08-25T05:43:54.206Z,13.20
2023-08-25T05:46:21.286Z,14.80
2023-08-25T05:48:48.190Z,17.23
2023-08-25T05:51:15.133Z,15.57
2023-08-25T05:53:42.938Z,12.93
2023-08-25T05:56:10.203Z,13.65
2023-08-25T05:58:37.074Z,17.65
2023-08-25T06:01:03.912Z,13.40
2023-08-25T06:03:30.760Z,13.43
2023-08-25T06:05:57.712Z,15.02
2023-08-25T06:08:24.539Z,13.18
2023-08-25T06:10:53.278Z,9.68
2023-08-25T06:13:20.391Z,12.45
2023-08-25T06:15:48.146Z,11.25
2023-08-25T06:18:14.966Z,13.68
2023-08-25T06:20:42.425Z,15.20
2023-08-25T06:23:09.630Z,13.93
2023-08-25T06:25:37.689Z,11.95
2023-08-25T06:28:04.950Z,14.23
2023-08-25T06:30:32.379Z,13.07
2023-08-25T06:32:59.341Z,15.45
2023-08-25T06:35:27.165Z,11.82
2023-08-25T06:37:54.404Z,13.07
2023-08-25T06:40:21.443Z,16.17
2023-08-25T06:42:48.361Z,9.85
2023-08-25T06:45:16.106Z,10.00
2023-08-25T06:47:44.121Z,8.88
2023-08-25T06:50:11.279Z,12.02
2023-08-25T06:52:38.700Z,9.85
2023-08-25T06:55:05.901Z,8.48
2023-08-25T06:57:34.708Z,7.70
2023-08-25T07:00:01.609Z,8.65
2023-08-25T07:02:28.424Z,7.50
2023-08-25T07:04:55.337Z,9.13
2023-08-25T07:07:27.174Z,8.10
2023-08-25T07:09:54.908Z,7.22
2023-08-25T07:12:21.734Z,7.75
2023-08-25T07:14:48.610Z,7.00
2023-08-25T07:17:15.481Z,10.38
2023-08-25T07:19:42.344Z,6.85
2023-08-25T07:22:09.707Z,6.53
2023-08-25T07:24:36.688Z,7.43
2023-08-25T07:27:03.744Z,7.38
2023-08-25T07:29:30.684Z,7.30
2023-08-25T07:31:57.997Z,7.05
2023-08-25T07:34:24.910Z,7.28
2023-08-25T07:36:53.852Z,7.28
2023-08-25T07:39:20.793Z,10.85
2023-08-25T07:41:47.626Z,7.47
2023-08-25T07:44:14.864Z,8.43
2023-08-25T07:46:41.796Z,6.97
2023-08-25T07:49:09.253Z,5.93
2023-08-25T07:51:40.731Z,8.00
2023-08-25T07:54:08.676Z,5.43
2023-08-25T07:56:35.639Z,7.57
2023-08-25T07:59:02.485Z,6.40
2023-08-25T08:01:29.434Z,13.18
2023-08-25T08:03:56.418Z,7.10
2023-08-25T08:06:23.350Z,7.40
2023-08-25T08:08:50.235Z,7.30
2023-08-25T08:11:17.178Z,6.80
2023-08-25T08:13:44.034Z,5.88
2023-08-25T08:16:10.871Z,6.07
2023-08-25T08:18:37.766Z,5.97
2023-08-25T08:21:04.636Z,5.53
2023-08-25T08:23:31.522Z,6.05
2023-08-25T08:25:59.560Z,7.43
2023-08-25T08:28:26.572Z,11.95
2023-08-25T08:30:53.554Z,6.43
2023-08-25T08:33:20.527Z,5.65
2023-08-25T08:35:47.479Z,7.07
2023-08-25T08:38:14.339Z,4.80
2023-08-25T08:40:41.787Z,9.00
2023-08-25T08:43:11.534Z,5.85
2023-08-25T08:45:40.194Z,9.05
2023-08-25T08:48:08.190Z,8.02
2023-08-25T08:50:36.018Z,4.72
2023-08-25T08:53:06.003Z,4.47
2023-08-25T08:55:34.482Z,5.85
2023-08-25T08:58:01.464Z,5.07
2023-08-25T09:00:29.130Z,4.93
2023-08-25T09:02:59.849Z,4.15
2023-08-25T09:05:31.106Z,5.78
2023-08-25T09:08:02.246Z,6.28
2023-08-25T09:10:29.432Z,3.90
2023-08-25T09:12:57.297Z,3.92
2023-08-25T09:15:33.606Z,6.35
2023-08-25T09:18:06.683Z,9.13
2023-08-25T09:20:35.617Z,4.00
2023-08-25T09:23:03.591Z,5.00
2023-08-25T09:25:30.948Z,7.18
2023-08-25T09:27:59.557Z,5.05
2023-08-25T09:30:39.267Z,5.03
2023-08-25T09:33:08.850Z,7.22
2023-08-25T09:35:36.323Z,4.35
2023-08-25T09:38:04.032Z,5.57
2023-08-25T09:40:32.211Z,3.30
2023-08-25T09:43:04.243Z,5.35
2023-08-25T09:45:34.669Z,5.70
2023-08-25T09:48:08.682Z,9.13
2023-08-25T09:50:43.180Z,5.55
2023-08-25T09:53:14.195Z,5.68
2023-08-25T09:55:41.409Z,3.50
2023-08-25T09:58:10.335Z,6.93
2023-08-25T10:00:41.291Z,5.50
2023-08-25T10:03:10.389Z,4.78
2023-08-25T10:05:39.531Z,5.03
2023-08-25T10:08:09.135Z,3.72
2023-08-25T10:10:37.670Z,5.73
2023-08-25T10:13:05.608Z,5.13
2023-08-25T10:15:33.695Z,5.90
2023-08-25T10:18:08.110Z,9.98
2023-08-25T10:20:37.088Z,6.63
2023-08-25T10:23:09.899Z,6.13
2023-08-25T10:25:39.259Z,6.00
2023-08-25T10:28:08.861Z,4.13
2023-08-25T10:30:37.060Z,4.65
2023-08-25T10:33:10.295Z,5.15
2023-08-25T10:35:48.059Z,7.28
2023-08-25T10:38:20.978Z,4.30
2023-08-25T10:40:55.260Z,5.32
2023-08-25T10:43:32.146Z,3.95
2023-08-25T10:46:10.454Z,5.13
2023-08-25T10:48:41.984Z,6.30
2023-08-25T10:51:20.291Z,6.15
2023-08-25T10:53:54.384Z,4.32
2023-08-25T10:56:24.787Z,5.65
2023-08-25T10:59:03.364Z,6.30
2023-08-25T11:01:39.754Z,3.75
2023-08-25T11:04:13.546Z,4.40
2023-08-25T11:06:50.210Z,8.15
2023-08-25T11:09:19.887Z,4.78
2023-08-25T11:11:55.603Z,7.18
2023-08-25T11:14:47.033Z,5.63
2023-08-25T11:17:14.030Z,4.60
2023-08-25T11:19:41.513Z,5.97
2023-08-25T11:22:10.979Z,8.63
2023-08-25T11:24:37.927Z,5.27
2023-08-25T11:27:10.479Z,9.55
2023-08-25T11:29:38.310Z,5.60
2023-08-25T11:32:05.550Z,3.30
2023-08-25T11:34:33.657Z,5.00
2023-08-25T11:37:01.038Z,3.38
2023-08-25T11:39:28.222Z,3.78
2023-08-25T11:41:55.973Z,8.20
2023-08-25T11:44:26.889Z,8.45
2023-08-25T11:46:58.014Z,3.92
2023-08-25T11:49:29.055Z,6.30
2023-08-25T11:51:56.074Z,3.83
2023-08-25T11:54:23.023Z,5.57
2023-08-25T11:56:51.771Z,4.03
2023-08-25T11:59:20.055Z,5.38
2023-08-25T12:01:50.702Z,9.05
2023-08-25T12:04:24.765Z,3.83
2023-08-25T12:06:56.453Z,2.17
2023-08-25T12:09:24.702Z,4.22
2023-08-25T12:11:54.359Z,4.88
2023-08-25T12:14:28.516Z,15.07
2023-08-25T12:16:59.516Z,6.18
2023-08-25T12:19:29.686Z,4.85
2023-08-25T12:21:58.022Z,7.13
2023-08-25T12:24:25.402Z,5.03
2023-08-25T12:26:52.383Z,6.70
2023-08-25T12:29:21.296Z,6.15
2023-08-25T12:31:48.567Z,5.90
2023-08-25T12:34:15.584Z,5.72
2023-08-25T12:36:42.966Z,8.23
2023-08-25T12:39:09.851Z,4.25
2023-08-25T12:41:37.355Z,7.65
2023-08-25T12:44:04.482Z,7.43
2023-08-25T12:46:32.367Z,7.65
2023-08-25T12:48:59.814Z,4.07
2023-08-25T12:51:27.923Z,3.60
2023-08-25T12:53:57.630Z,4.10
2023-08-25T12:56:24.966Z,5.90
2023-08-25T12:58:55.274Z,4.10
2023-08-25T13:01:22.293Z,4.05
2023-08-25T13:03:49.725Z,4.22
2023-08-25T13:06:16.680Z,7.97
2023-08-25T13:08:43.539Z,3.65
2023-08-25T13:11:10.485Z,3.47
2023-08-25T13:13:37.317Z,3.13
2023-08-25T13:16:07.687Z,2.65
2023-08-25T13:21:01.534Z,3.78
2023-08-25T13:23:39.261Z,4.32
2023-08-25T13:26:12.115Z,3.90
2023-08-25T13:28:39.031Z,3.47
2023-08-25T13:31:05.926Z,3.38
2023-08-25T13:33:34.869Z,2.45
2023-08-25T13:36:05.199Z,1.90
2023-08-25T13:38:32.130Z,3.55
2023-08-25T13:40:58.969Z,3.72
2023-08-25T13:43:25.905Z,4.07
2023-08-25T13:45:52.852Z,2.13
2023-08-25T13:48:19.758Z,2.22
2023-08-25T13:50:47.988Z,2.63
2023-08-25T13:53:14.902Z,5.10
2023-08-25T13:55:42.397Z,4.18
2023-08-25T13:58:09.837Z,3.22
2023-08-25T14:00:37.185Z,4.13
2023-08-25T14:03:05.545Z,3.65
2023-08-25T14:05:32.612Z,2.47
2023-08-25T14:07:59.479Z,6.65
2023-08-25T14:10:26.762Z,2.42
2023-08-25T14:12:53.943Z,5.55
2023-08-25T14:15:20.808Z,3.30
2023-08-25T14:17:47.793Z,1.80
2023-08-25T14:20:15.392Z,2.13
2023-08-25T14:22:42.266Z,2.17
2023-08-25T14:25:10.279Z,5.43
2023-08-25T14:27:37.108Z,2.83
2023-08-25T14:30:05.877Z,5.57
2023-08-25T14:32:32.732Z,2.83
2023-08-25T14:34:59.615Z,4.63
2023-08-25T14:37:26.495Z,7.13
2023-08-25T14:39:54.531Z,1.98
2023-08-25T14:42:21.500Z,5.22
2023-08-25T14:44:48.403Z,4.65
2023-08-25T14:47:15.268Z,2.78
2023-08-25T14:49:43.815Z,4.05
2023-08-25T14:52:11.046Z,2.33
2023-08-25T14:54:37.996Z,3.78
2023-08-25T14:57:06.241Z,2.88
2023-08-25T14:59:34.325Z,2.80
2023-08-25T15:02:01.293Z,3.90
2023-08-25T15:04:28.128Z,6.05
2023-08-25T15:06:55.035Z,3.63
2023-08-25T15:09:21.948Z,4.95
2023-08-25T15:11:48.775Z,3.03
2023-08-25T15:14:15.596Z,4.63
2023-08-25T15:16:42.443Z,3.00
2023-08-25T15:19:09.373Z,2.60
2023-08-25T15:21:36.259Z,3.30
2023-08-25T15:24:03.140Z,3.53
2023-08-25T15:26:30.065Z,4.32
2023-08-25T15:28:56.936Z,4.15
2023-08-25T15:31:23.792Z,2.83
2023-08-25T15:33:50.705Z,5.35
2023-08-25T15:36:20.013Z,3.10
2023-08-25T15:38:47.487Z,4.03
2023-08-25T15:41:16.226Z,3.22
2023-08-25T15:43:43.237Z,3.97
2023-08-25T15:46:10.537Z,5.70
2023-08-25T15:48:37.556Z,2.78
2023-08-25T15:51:06.275Z,3.35
2023-08-25T15:53:33.395Z,3.30
2023-08-25T15:56:00.284Z,3.67
2023-08-25T15:58:27.211Z,3.67
2023-08-25T16:01:02.074Z,2.83
2023-08-25T16:03:31.127Z,3.47
2023-08-25T16:05:59.911Z,5.68
2023-08-25T16:08:27.694Z,4.82
2023-08-25T16:11:02.104Z,2.65
2023-08-25T16:13:30.006Z,2.92
2023-08-25T16:15:57.903Z,10.35
2023-08-25T16:18:24.793Z,3.20
2023-08-25T16:20:51.746Z,2.88
2023-08-25T16:23:19.231Z,2.85
2023-08-25T16:25:47.012Z,4.85
2023-08-25T16:28:13.895Z,3.78
2023-08-25T16:30:40.926Z,3.35
2023-08-25T16:33:08.015Z,3.67
2023-08-25T16:35:34.979Z,3.58
2023-08-25T16:38:04.404Z,3.75
2023-08-25T16:40:31.440Z,3.60
2023-08-25T16:43:01.306Z,3.67
2023-08-25T16:45:29.279Z,3.75
2023-08-25T16:47:58.973Z,3.58
2023-08-25T16:50:26.110Z,4.43
2023-08-25T16:52:53.434Z,3.65
2023-08-25T16:55:20.568Z,4.10
2023-08-25T16:57:47.619Z,4.22
2023-08-25T17:00:14.797Z,3.15
2023-08-25T17:02:46.317Z,6.07
2023-08-25T17:05:13.676Z,3.55
2023-08-25T17:07:48.441Z,4.28
2023-08-25T17:10:16.685Z,5.35
2023-08-25T17:12:43.662Z,6.32
2023-08-25T17:15:11.095Z,7.10
2023-08-25T17:17:38.036Z,5.18
2023-08-25T17:20:07.675Z,4.45
2023-08-25T17:22:34.597Z,27.05
2023-08-25T17:25:01.489Z,9.18
2023-08-25T17:27:28.504Z,11.10
2023-08-25T17:29:55.319Z,3.85
2023-08-25T17:32:22.157Z,4.03
2023-08-25T17:34:49.026Z,3.55
2023-08-25T17:37:15.845Z,3.65
2023-08-25T17:39:42.717Z,9.95
2023-08-25T17:42:09.601Z,3.85
2023-08-25T17:44:36.420Z,3.78
2023-08-25T17:47:03.529Z,5.55
2023-08-25T17:49:30.408Z,3.88
2023-08-25T17:51:57.298Z,3.65
2023-08-25T17:54:24.144Z,6.05
2023-08-25T17:56:51.016Z,4.97
2023-08-25T17:59:17.847Z,5.18
2023-08-25T18:01:44.737Z,5.65
2023-08-25T18:04:12.145Z,4.20
2023-08-25T18:06:40.228Z,4.05
2023-08-25T18:09:09.899Z,3.92
2023-08-25T18:11:39.836Z,5.10
2023-08-25T18:14:06.725Z,4.63
2023-08-25T18:16:33.557Z,5.28
2023-08-25T18:19:00.389Z,3.22
2023-08-25T18:21:27.394Z,2.90
2023-08-25T18:23:54.221Z,6.93
2023-08-25T18:26:21.304Z,4.63
2023-08-25T18:28:48.147Z,5.70
2023-08-25T18:31:15.655Z,2.97
2023-08-25T18:33:42.659Z,3.17
2023-08-25T18:36:09.733Z,4.03
2023-08-25T18:38:36.618Z,3.08
2023-08-25T18:41:04.360Z,3.97
2023-08-25T18:43:31.298Z,8.77
2023-08-25T18:45:59.575Z,3.00
2023-08-25T18:48:26.942Z,3.67
2023-08-25T18:50:54.128Z,4.90
2023-08-25T18:53:20.984Z,3.55
2023-08-25T18:55:48.849Z,3.78
2023-08-25T18:58:16.224Z,3.30
2023-08-25T19:00:48.105Z,6.53
2023-08-25T19:03:19.608Z,4.22
2023-08-25T19:05:47.429Z,3.58
2023-08-25T19:08:14.503Z,3.60
2023-08-25T19:10:41.344Z,8.15
2023-08-25T19:13:08.231Z,4.22
2023-08-25T19:15:35.366Z,5.82
2023-08-25T19:18:02.260Z,5.43
2023-08-25T19:20:29.165Z,3.45
2023-08-25T19:22:56.256Z,10.65
2023-08-25T19:25:23.368Z,4.40
2023-08-25T19:27:53.086Z,3.50
2023-08-25T19:30:19.947Z,4.45
2023-08-25T19:32:46.865Z,4.00
2023-08-25T19:35:13.871Z,7.57
2023-08-25T19:37:40.721Z,5.78
2023-08-25T19:40:11.410Z,4.82
2023-08-25T19:42:38.556Z,6.38
2023-08-25T19:45:07.236Z,4.65
2023-08-25T19:47:34.146Z,7.30
2023-08-25T19:50:01.006Z,4.28
2023-08-25T19:52:27.958Z,6.32
2023-08-25T19:54:54.837Z,5.78
2023-08-25T19:57:21.790Z,7.50
2023-08-25T19:59:48.779Z,4.80
2023-08-25T20:02:15.828Z,6.05
2023-08-25T20:04:43.766Z,7.72
2023-08-25T20:07:10.720Z,9.05
2023-08-25T20:09:38.390Z,7.82
2023-08-25T20:12:05.730Z,3.88
2023-08-25T20:14:34.361Z,6.45
2023-08-25T20:17:01.288Z,4.18
2023-08-25T20:19:28.242Z,4.57
2023-08-25T20:21:56.044Z,8.07
2023-08-25T20:24:22.940Z,4.63
2023-08-25T20:26:49.869Z,4.38
2023-08-25T20:29:16.697Z,8.20
2023-08-25T20:31:44.419Z,7.22
2023-08-25T20:34:11.303Z,6.00
2023-08-25T20:36:38.166Z,5.75
2023-08-25T20:39:05.359Z,5.60
2023-08-25T20:41:32.208Z,6.97
2023-08-25T20:43:59.061Z,4.85
2023-08-25T20:46:25.994Z,7.20
2023-08-25T20:48:52.976Z,7.03
2023-08-25T20:51:24.751Z,6.53
2023-08-25T20:53:54.181Z,7.22
2023-08-25T20:56:21.930Z,8.27
2023-08-25T20:58:48.845Z,6.45
2023-08-25T21:01:16.032Z,5.93
2023-08-25T21:03:43.277Z,12.45
2023-08-25T21:06:10.305Z,5.28
2023-08-25T21:08:37.221Z,8.15
2023-08-25T21:11:04.864Z,3.75
2023-08-25T21:13:31.926Z,3.42
2023-08-25T21:16:00.015Z,4.25
2023-08-25T21:18:26.890Z,5.18
2023-08-25T21:20:54.940Z,4.32
2023-08-25T21:23:23.387Z,4.07
2023-08-25T21:25:51.252Z,5.60
2023-08-25T21:28:18.135Z,4.13
2023-08-25T21:30:55.870Z,5.65
2023-08-25T21:33:24.140Z,6.72
2023-08-25T21:35:51.777Z,5.20
2023-08-25T21:38:19.373Z,6.55
2023-08-25T21:40:46.382Z,3.83
2023-08-25T21:43:14.081Z,4.78
2023-08-25T21:45:46.344Z,4.15
2023-08-25T21:48:13.540Z,4.95
2023-08-25T21:50:42.553Z,5.10
2023-08-25T21:53:09.691Z,6.18
2023-08-25T21:55:39.828Z,4.95
2023-08-25T21:58:07.241Z,3.75
2023-08-25T22:00:35.365Z,5.75
2023-08-25T22:03:02.903Z,3.63
2023-08-25T22:05:29.908Z,7.10
2023-08-25T22:07:56.917Z,5.82
2023-08-25T22:10:23.954Z,4.47
2023-08-25T22:12:53.670Z,5.38
2023-08-25T22:15:22.055Z,13.02
2023-08-25T22:17:49.037Z,5.53
2023-08-25T22:20:16.018Z,4.13
2023-08-25T22:22:42.977Z,4.75
2023-08-25T22:25:10.194Z,5.18
2023-08-25T22:27:38.092Z,5.93
2023-08-25T22:30:06.227Z,4.90
2023-08-25T22:35:03.935Z,3.85
2023-08-25T22:37:30.918Z,5.53
2023-08-25T22:39:57.813Z,8.82
2023-08-25T22:42:24.633Z,5.45
2023-08-25T22:44:51.635Z,6.53
2023-08-25T22:47:18.458Z,7.40
2023-08-25T22:49:45.471Z,5.28
2023-08-25T22:52:12.291Z,7.00
2023-08-25T22:54:40.326Z,4.82
2023-08-25T22:57:07.214Z,5.85
2023-08-25T22:59:37.350Z,5.47
2023-08-25T23:02:04.597Z,8.13
2023-08-25T23:04:31.520Z,8.00
2023-08-25T23:06:58.381Z,6.55
2023-08-25T23:09:25.261Z,5.85
2023-08-25T23:11:52.127Z,7.10
2023-08-25T23:14:18.968Z,8.40
2023-08-25T23:16:46.905Z,7.22
2023-08-25T23:19:13.994Z,8.40
2023-08-25T23:21:40.865Z,10.77
2023-08-25T23:24:07.874Z,6.38
2023-08-25T23:26:36.731Z,7.75
2023-08-25T23:29:03.566Z,6.22
2023-08-25T23:31:30.563Z,8.13
2023-08-25T23:33:57.436Z,9.00
2023-08-25T23:36:24.330Z,10.30
2023-08-25T23:38:51.210Z,7.28
2023-08-25T23:41:18.141Z,7.93
2023-08-25T23:43:44.979Z,6.13
2023-08-25T23:46:11.880Z,11.10
2023-08-25T23:48:38.764Z,6.97
2023-08-25T23:51:05.674Z,8.75
2023-08-25T23:53:32.547Z,9.45
2023-08-25T23:55:59.415Z,7.80
2023-08-25T23:58:26.556Z,6.75
